createdAt,value
2018-12-27T00:01:23.319Z,9.38
2018-12-27T00:03:58.214Z,9.42
2018-12-27T00:06:32.241Z,9.39
2018-12-27T00:09:07.155Z,9.48
2018-12-27T00:11:40.719Z,9.36
2018-12-27T00:14:14.495Z,9.29
2018-12-27T00:16:48.085Z,9.29
2018-12-27T00:19:21.710Z,9.29
2018-12-27T00:21:55.349Z,9.32
2018-12-27T00:24:29.062Z,9.31
2018-12-27T00:27:02.661Z,9.26
2018-12-27T00:29:36.584Z,9.19
2018-12-27T00:32:10.424Z,9.08
2018-12-27T00:34:44.258Z,8.97
2018-12-27T00:37:18.151Z,9.11
2018-12-27T00:39:52.055Z,9.06
2018-12-27T00:42:25.912Z,9.10
2018-12-27T00:44:59.784Z,9.10
2018-12-27T00:47:33.551Z,9.05
2018-12-27T00:50:07.372Z,9.14
2018-12-27T00:52:41.154Z,9.10
2018-12-27T00:55:15.060Z,9.05
2018-12-27T00:57:48.865Z,8.92
2018-12-27T01:00:22.755Z,8.92
2018-12-27T01:02:56.691Z,9.00
2018-12-27T01:05:30.589Z,8.87
2018-12-27T01:08:04.369Z,8.89
2018-12-27T01:10:38.334Z,8.76
2018-12-27T01:13:12.190Z,8.82
2018-12-27T01:15:46.107Z,8.88
2018-12-27T01:18:19.958Z,8.72
2018-12-27T01:20:53.848Z,8.75
2018-12-27T01:23:27.687Z,8.74
2018-12-27T01:26:01.576Z,8.55
2018-12-27T01:28:35.339Z,8.57
2018-12-27T01:31:09.170Z,8.66
2018-12-27T01:33:43.007Z,8.68
2018-12-27T01:36:16.968Z,8.70
2018-12-27T01:38:50.672Z,8.73
2018-12-27T01:41:24.476Z,8.65
2018-12-27T01:43:58.250Z,8.68
2018-12-27T01:46:32.148Z,8.75
2018-12-27T01:49:06.067Z,8.81
2018-12-27T01:51:39.972Z,8.82
2018-12-27T01:54:13.667Z,8.79
2018-12-27T01:56:47.542Z,8.81
2018-12-27T01:59:21.388Z,8.76
2018-12-27T02:01:55.306Z,8.77
2018-12-27T02:04:29.153Z,8.70
2018-12-27T02:07:03.111Z,8.76
2018-12-27T02:09:36.812Z,8.63
2018-12-27T02:12:10.642Z,8.67
2018-12-27T02:14:44.355Z,8.60
2018-12-27T02:17:18.227Z,8.57
2018-12-27T02:19:51.999Z,8.53
2018-12-27T02:22:25.951Z,8.51
2018-12-27T02:24:59.851Z,8.53
2018-12-27T02:27:33.737Z,8.64
2018-12-27T02:30:07.507Z,8.63
2018-12-27T02:32:41.407Z,8.60
2018-12-27T02:35:15.204Z,8.61
2018-12-27T02:37:48.961Z,8.64
2018-12-27T02:40:22.815Z,8.57
2018-12-27T02:42:56.619Z,8.60
2018-12-27T02:45:30.394Z,8.62
2018-12-27T02:48:04.266Z,8.60
2018-12-27T02:50:38.011Z,8.52
2018-12-27T02:53:11.665Z,8.52
2018-12-27T02:55:45.291Z,8.52
2018-12-27T02:58:18.949Z,8.43
2018-12-27T03:00:52.629Z,8.43
2018-12-27T03:03:26.394Z,8.49
2018-12-27T03:06:00.015Z,8.46
2018-12-27T03:08:33.747Z,8.46
2018-12-27T03:11:07.379Z,8.48
2018-12-27T03:13:41.187Z,8.52
2018-12-27T03:16:14.876Z,8.50
2018-12-27T03:18:48.534Z,8.28
2018-12-27T03:21:22.160Z,8.30
2018-12-27T03:23:56.003Z,8.30
2018-12-27T03:26:29.699Z,8.35
2018-12-27T03:29:03.437Z,8.38
2018-12-27T03:31:37.127Z,8.40
2018-12-27T03:34:10.784Z,8.27
2018-12-27T03:36:44.468Z,8.31
2018-12-27T03:39:18.257Z,8.12
2018-12-27T03:41:52.035Z,8.07
2018-12-27T03:44:25.706Z,8.15
2018-12-27T03:46:59.331Z,8.02
2018-12-27T03:49:33.145Z,7.99
2018-12-27T03:52:06.807Z,8.01
2018-12-27T03:54:40.565Z,8.00
2018-12-27T03:57:14.277Z,7.92
2018-12-27T03:59:48.041Z,7.97
2018-12-27T04:02:21.669Z,8.05
2018-12-27T04:04:55.417Z,8.01
2018-12-27T04:07:29.042Z,7.99
2018-12-27T04:10:02.776Z,8.04
2018-12-27T04:12:36.512Z,8.02
2018-12-27T04:15:10.274Z,8.02
2018-12-27T04:17:43.905Z,7.99
2018-12-27T04:20:17.480Z,7.95
2018-12-27T04:22:50.923Z,7.92
2018-12-27T04:25:27.354Z,7.82
2018-12-27T04:28:00.945Z,7.90
2018-12-27T04:30:34.690Z,7.89
2018-12-27T04:33:11.186Z,7.87
2018-12-27T04:35:44.921Z,7.74
2018-12-27T04:38:18.432Z,7.78
2018-12-27T04:40:52.117Z,7.78
2018-12-27T04:43:26.750Z,7.80
2018-12-27T04:46:00.294Z,7.78
2018-12-27T04:48:33.729Z,7.79
2018-12-27T04:51:07.520Z,7.77
2018-12-27T04:53:41.026Z,7.78
2018-12-27T04:56:14.644Z,7.56
2018-12-27T04:58:48.140Z,7.65
2018-12-27T05:01:21.677Z,7.70
2018-12-27T05:03:55.110Z,7.75
2018-12-27T05:06:28.665Z,7.76
2018-12-27T05:09:02.103Z,7.74
2018-12-27T05:11:35.716Z,7.70
2018-12-27T05:14:09.234Z,7.70
2018-12-27T05:16:42.765Z,7.72
2018-12-27T05:19:16.209Z,7.65
2018-12-27T05:21:50.079Z,7.72
2018-12-27T05:24:23.586Z,7.74
2018-12-27T05:26:57.117Z,7.69
2018-12-27T05:29:30.625Z,7.59
2018-12-27T05:32:04.164Z,7.60
2018-12-27T05:34:54.063Z,7.53
2018-12-27T05:37:27.582Z,7.57
2018-12-27T05:40:01.113Z,7.60
2018-12-27T05:42:35.080Z,7.62
2018-12-27T05:45:08.572Z,7.65
2018-12-27T05:47:42.042Z,7.64
2018-12-27T05:50:15.484Z,7.67
2018-12-27T05:52:49.019Z,7.68
2018-12-27T05:55:22.522Z,7.63
2018-12-27T05:57:56.063Z,7.67
2018-12-27T06:00:29.620Z,7.61
2018-12-27T06:03:03.162Z,7.59
2018-12-27T06:05:36.661Z,7.52
2018-12-27T06:08:10.247Z,7.57
2018-12-27T06:10:43.899Z,7.42
2018-12-27T06:13:17.444Z,7.43
2018-12-27T06:15:50.955Z,7.39
2018-12-27T06:18:24.430Z,7.50
2018-12-27T06:20:57.930Z,7.48
2018-12-27T06:23:31.697Z,7.49
2018-12-27T06:26:05.273Z,7.50
2018-12-27T06:28:38.824Z,7.55
2018-12-27T06:31:12.521Z,7.49
2018-12-27T06:33:46.142Z,7.56
2018-12-27T06:36:19.649Z,7.55
2018-12-27T06:38:53.196Z,7.59
2018-12-27T06:41:26.616Z,7.59
2018-12-27T06:44:00.155Z,7.55
2018-12-27T06:46:33.588Z,7.59
2018-12-27T06:49:08.346Z,7.59
2018-12-27T06:51:41.843Z,7.62
2018-12-27T06:54:15.318Z,7.57
2018-12-27T06:56:49.242Z,7.55
2018-12-27T06:59:22.871Z,7.59
2018-12-27T07:01:56.335Z,7.54
2018-12-27T07:04:29.898Z,7.58
2018-12-27T07:07:03.329Z,7.60
2018-12-27T07:09:36.881Z,7.61
2018-12-27T07:12:10.334Z,7.64
2018-12-27T07:14:43.888Z,7.60
2018-12-27T07:17:17.454Z,7.61
2018-12-27T07:19:51.058Z,7.61
2018-12-27T07:22:24.569Z,7.62
2018-12-27T07:24:58.207Z,7.62
2018-12-27T07:27:31.739Z,7.57
2018-12-27T07:30:07.271Z,7.54
2018-12-27T07:32:40.834Z,7.59
2018-12-27T07:35:14.376Z,7.62
2018-12-27T07:37:47.878Z,7.61
2018-12-27T07:40:21.360Z,7.61
2018-12-27T07:42:54.912Z,7.69
2018-12-27T07:45:28.446Z,7.70
2018-12-27T07:48:01.954Z,7.66
2018-12-27T07:50:35.530Z,7.71
2018-12-27T07:53:09.041Z,7.65
2018-12-27T07:55:42.677Z,7.62
2018-12-27T07:58:16.246Z,7.67
2018-12-27T08:00:49.864Z,7.65
2018-12-27T08:03:23.324Z,7.67
2018-12-27T08:05:56.864Z,7.67
2018-12-27T08:08:30.387Z,7.56
2018-12-27T08:11:04.093Z,7.54
2018-12-27T08:13:37.664Z,7.51
2018-12-27T08:16:11.221Z,7.58
2018-12-27T08:18:44.799Z,7.60
2018-12-27T08:21:18.406Z,7.63
2018-12-27T08:23:51.864Z,7.67
2018-12-27T08:26:25.411Z,7.64
2018-12-27T08:28:58.919Z,7.66
2018-12-27T08:31:32.475Z,7.67
2018-12-27T08:34:05.898Z,7.59
2018-12-27T08:36:39.532Z,7.62
2018-12-27T08:39:13.132Z,7.69
2018-12-27T08:41:46.754Z,7.67
2018-12-27T08:44:20.255Z,7.67
2018-12-27T08:46:53.955Z,7.73
2018-12-27T08:49:27.494Z,7.73
2018-12-27T08:52:01.112Z,7.67
2018-12-27T08:54:34.542Z,7.65
2018-12-27T08:57:08.352Z,7.64
2018-12-27T08:59:41.782Z,7.73
2018-12-27T09:02:15.309Z,7.77
2018-12-27T09:04:48.969Z,7.81
2018-12-27T09:07:22.595Z,7.77
2018-12-27T09:09:56.035Z,7.84
2018-12-27T09:12:29.643Z,7.87
2018-12-27T09:15:03.216Z,7.91
2018-12-27T09:17:36.866Z,7.96
2018-12-27T09:20:10.415Z,7.99
2018-12-27T09:22:43.875Z,8.02
2018-12-27T09:25:17.379Z,8.09
2018-12-27T09:27:50.939Z,8.11
2018-12-27T09:30:24.513Z,8.10
2018-12-27T09:32:58.002Z,8.15
2018-12-27T09:35:31.503Z,8.09
2018-12-27T09:38:05.163Z,8.18
2018-12-27T09:40:38.722Z,8.21
2018-12-27T09:43:12.273Z,8.20
2018-12-27T09:45:45.784Z,8.13
2018-12-27T09:48:19.343Z,8.04
2018-12-27T09:50:52.849Z,8.14
2018-12-27T09:53:26.451Z,8.17
2018-12-27T09:56:00.028Z,8.26
2018-12-27T09:58:33.729Z,8.36
2018-12-27T10:01:07.245Z,8.29
2018-12-27T10:03:40.869Z,8.33
2018-12-27T10:06:14.386Z,8.35
2018-12-27T10:08:47.866Z,8.44
2018-12-27T10:11:21.454Z,8.49
2018-12-27T10:13:55.073Z,8.53
2018-12-27T10:16:28.590Z,8.51
2018-12-27T10:19:02.162Z,8.48
2018-12-27T10:21:35.654Z,8.53
2018-12-27T10:24:09.260Z,8.58
2018-12-27T10:26:42.775Z,8.63
2018-12-27T10:29:16.326Z,8.68
2018-12-27T10:31:49.856Z,8.65
2018-12-27T10:34:23.522Z,8.60
2018-12-27T10:36:58.781Z,8.66
2018-12-27T10:39:32.458Z,8.64
2018-12-27T10:42:05.974Z,8.66
2018-12-27T10:44:39.583Z,8.69
2018-12-27T10:47:13.156Z,8.65
2018-12-27T10:49:46.802Z,8.75
2018-12-27T10:52:20.308Z,8.80
2018-12-27T10:54:54.010Z,8.84
2018-12-27T10:57:27.513Z,8.73
2018-12-27T11:00:01.056Z,8.74
2018-12-27T11:02:34.570Z,8.83
2018-12-27T11:05:08.128Z,8.83
2018-12-27T11:07:41.554Z,8.75
2018-12-27T11:10:16.326Z,8.82
2018-12-27T11:12:49.824Z,8.83
2018-12-27T11:15:23.434Z,8.88
2018-12-27T11:17:56.931Z,8.87
2018-12-27T11:20:30.578Z,8.83
2018-12-27T11:23:04.083Z,8.86
2018-12-27T11:25:37.746Z,8.75
2018-12-27T11:28:11.323Z,8.74
2018-12-27T11:30:45.042Z,8.72
2018-12-27T11:33:18.558Z,8.84
2018-12-27T11:35:55.777Z,8.91
2018-12-27T11:38:27.324Z,8.97
2018-12-27T11:41:00.936Z,8.97
2018-12-27T11:43:34.516Z,8.99
2018-12-27T11:46:08.064Z,9.03
2018-12-27T11:48:41.875Z,9.08
2018-12-27T11:51:15.513Z,9.17
2018-12-27T11:53:49.072Z,9.11
2018-12-27T11:56:22.697Z,9.05
2018-12-27T11:58:56.287Z,9.04
2018-12-27T12:01:29.836Z,9.13
2018-12-27T12:04:03.342Z,8.90
2018-12-27T12:06:37.254Z,9.03
2018-12-27T12:09:10.824Z,9.07
2018-12-27T12:11:44.423Z,9.06
2018-12-27T12:14:17.861Z,9.01
2018-12-27T12:16:51.550Z,9.02
2018-12-27T12:19:25.131Z,8.99
2018-12-27T12:21:58.675Z,9.04
2018-12-27T12:24:32.258Z,9.05
2018-12-27T12:27:05.794Z,9.15
2018-12-27T12:29:39.376Z,9.15
2018-12-27T12:32:12.841Z,9.16
2018-12-27T12:34:46.386Z,9.10
2018-12-27T12:37:20.000Z,9.04
2018-12-27T12:39:53.435Z,9.05
2018-12-27T12:42:32.725Z,9.11
2018-12-27T12:45:02.296Z,9.20
2018-12-27T12:47:35.898Z,9.11
2018-12-27T12:50:09.406Z,9.21
2018-12-27T12:52:44.027Z,9.19
2018-12-27T12:55:17.701Z,9.14
2018-12-27T12:57:51.276Z,9.11
2018-12-27T13:00:24.837Z,9.05
2018-12-27T13:02:58.454Z,9.19
2018-12-27T13:05:31.959Z,9.27
2018-12-27T13:08:05.555Z,9.28
2018-12-27T13:10:38.982Z,9.25
2018-12-27T13:13:12.551Z,9.20
2018-12-27T13:15:46.005Z,9.20
2018-12-27T13:18:19.598Z,9.15
2018-12-27T13:20:53.105Z,9.24
2018-12-27T13:23:26.652Z,9.27
2018-12-27T13:26:00.255Z,9.25
2018-12-27T13:28:33.880Z,9.16
2018-12-27T13:31:07.387Z,9.25
2018-12-27T13:33:40.987Z,9.27
2018-12-27T13:36:14.508Z,9.24
2018-12-27T13:38:49.453Z,9.27
2018-12-27T13:41:22.970Z,9.24
2018-12-27T13:43:56.523Z,9.23
2018-12-27T13:46:30.018Z,9.30
2018-12-27T13:49:03.637Z,9.35
2018-12-27T13:51:37.128Z,9.29
2018-12-27T13:54:10.684Z,9.32
2018-12-27T13:56:44.175Z,9.30
2018-12-27T13:59:17.781Z,9.24
2018-12-27T14:01:51.275Z,9.27
2018-12-27T14:04:24.746Z,9.29
2018-12-27T14:06:58.266Z,9.32
2018-12-27T14:09:31.887Z,9.22
2018-12-27T14:12:06.324Z,9.22
2018-12-27T14:14:39.926Z,9.22
2018-12-27T14:17:13.451Z,9.26
2018-12-27T14:19:47.108Z,9.28
2018-12-27T14:22:20.601Z,9.27
2018-12-27T14:24:57.839Z,9.32
2018-12-27T14:27:29.370Z,9.31
2018-12-27T14:30:02.850Z,9.31
2018-12-27T14:32:36.621Z,9.33
2018-12-27T14:35:10.242Z,9.32
2018-12-27T14:37:43.749Z,9.31
2018-12-27T14:40:17.364Z,9.30
2018-12-27T14:42:50.795Z,9.32
2018-12-27T14:45:24.273Z,9.24
2018-12-27T14:47:57.876Z,9.28
2018-12-27T14:50:31.459Z,9.36
2018-12-27T14:53:04.969Z,9.34
2018-12-27T14:55:38.535Z,9.34
2018-12-27T14:58:12.041Z,9.37
2018-12-27T15:00:45.449Z,9.29
2018-12-27T15:03:18.982Z,9.25
2018-12-27T15:05:52.629Z,9.26
2018-12-27T15:08:26.129Z,9.20
2018-12-27T15:10:59.741Z,9.23
2018-12-27T15:13:33.325Z,9.09
2018-12-27T15:16:07.220Z,9.12
2018-12-27T15:18:40.653Z,9.16
2018-12-27T15:21:14.293Z,9.20
2018-12-27T15:23:47.713Z,9.16
2018-12-27T15:26:21.274Z,9.18
2018-12-27T15:28:54.784Z,9.13
2018-12-27T15:31:28.321Z,9.14
2018-12-27T15:34:01.774Z,9.15
2018-12-27T15:36:35.787Z,9.00
2018-12-27T15:39:09.218Z,8.95
2018-12-27T15:41:42.779Z,9.02
2018-12-27T15:44:16.376Z,9.10
2018-12-27T15:46:50.091Z,9.14
2018-12-27T15:49:23.553Z,9.20
2018-12-27T15:51:57.026Z,9.22
2018-12-27T15:54:30.699Z,9.23
2018-12-27T15:57:04.411Z,9.22
2018-12-27T15:59:37.967Z,9.25
2018-12-27T16:02:11.459Z,9.22
2018-12-27T16:04:45.005Z,9.23
2018-12-27T16:07:18.553Z,9.21
2018-12-27T16:09:52.073Z,9.12
2018-12-27T16:12:25.593Z,9.07
2018-12-27T16:14:59.127Z,9.15
2018-12-27T16:17:32.688Z,9.03
2018-12-27T16:20:06.385Z,9.02
2018-12-27T16:22:40.025Z,9.03
2018-12-27T16:25:13.396Z,9.03
2018-12-27T16:27:46.949Z,9.11
2018-12-27T16:30:20.471Z,9.15
2018-12-27T16:32:54.006Z,9.15
2018-12-27T16:35:27.630Z,9.15
2018-12-27T16:38:01.196Z,9.00
2018-12-27T16:40:34.797Z,9.12
2018-12-27T16:43:08.631Z,9.16
2018-12-27T16:45:42.237Z,9.17
2018-12-27T16:48:15.942Z,9.20
2018-12-27T16:50:49.531Z,9.20
2018-12-27T16:53:33.596Z,9.17
2018-12-27T16:56:08.204Z,9.16
2018-12-27T16:58:41.920Z,9.17
2018-12-27T17:01:15.486Z,9.13
2018-12-27T17:03:49.128Z,9.11
2018-12-27T17:06:22.700Z,9.08
2018-12-27T17:08:56.290Z,9.05
2018-12-27T17:11:29.908Z,9.11
2018-12-27T17:14:03.553Z,9.13
2018-12-27T17:16:37.079Z,9.14
2018-12-27T17:19:10.657Z,9.07
2018-12-27T17:21:44.171Z,9.07
2018-12-27T17:24:17.722Z,9.02
2018-12-27T17:26:51.220Z,9.00
2018-12-27T17:29:24.914Z,8.97
2018-12-27T17:31:58.411Z,8.97
2018-12-27T17:34:32.022Z,9.00
2018-12-27T17:37:05.538Z,8.99
2018-12-27T17:39:39.162Z,8.92
2018-12-27T17:42:12.602Z,8.94
2018-12-27T17:44:46.144Z,8.90
2018-12-27T17:47:19.647Z,8.93
2018-12-27T17:49:53.330Z,8.94
2018-12-27T17:52:30.307Z,8.87
2018-12-27T17:55:02.215Z,8.92
2018-12-27T17:57:35.718Z,8.92
2018-12-27T18:00:09.603Z,8.88
2018-12-27T18:02:43.112Z,8.93
2018-12-27T18:05:16.671Z,8.93
2018-12-27T18:07:50.220Z,8.79
2018-12-27T18:10:23.772Z,8.79
2018-12-27T18:12:57.352Z,8.88
2018-12-27T18:15:30.984Z,8.88
2018-12-27T18:18:04.562Z,8.92
2018-12-27T18:20:38.181Z,8.95
2018-12-27T18:23:11.775Z,8.97
2018-12-27T18:25:45.326Z,8.99
2018-12-27T18:28:18.823Z,8.95
2018-12-27T18:30:52.365Z,8.93
2018-12-27T18:33:25.821Z,8.96
2018-12-27T18:35:59.350Z,8.99
2018-12-27T18:38:32.778Z,9.00
2018-12-27T18:41:06.381Z,9.01
2018-12-27T18:43:39.978Z,9.01
2018-12-27T18:46:13.523Z,9.04
2018-12-27T18:48:47.028Z,9.03
2018-12-27T18:51:20.571Z,9.01
2018-12-27T18:53:54.079Z,9.00
2018-12-27T18:56:27.618Z,9.04
2018-12-27T18:59:01.124Z,9.02
2018-12-27T19:01:35.594Z,9.05
2018-12-27T19:04:09.090Z,9.04
2018-12-27T19:06:42.567Z,9.07
2018-12-27T19:09:16.089Z,9.08
2018-12-27T19:12:26.188Z,9.11
2018-12-27T19:15:01.541Z,9.12
2018-12-27T19:17:38.030Z,9.11
2018-12-27T19:20:11.742Z,9.00
2018-12-27T19:22:48.396Z,9.07
2018-12-27T19:25:21.905Z,9.01
2018-12-27T19:27:55.450Z,9.07
2018-12-27T19:30:28.975Z,9.07
2018-12-27T19:33:02.540Z,9.06
2018-12-27T19:35:36.433Z,9.08
2018-12-27T19:38:10.051Z,9.07
2018-12-27T19:40:43.580Z,8.98
2018-12-27T19:43:17.133Z,9.08
2018-12-27T19:45:50.710Z,9.12
2018-12-27T19:48:24.284Z,9.08
2018-12-27T19:50:57.730Z,9.04
2018-12-27T19:53:31.352Z,9.13
2018-12-27T19:56:04.860Z,9.11
2018-12-27T19:58:38.405Z,9.11
2018-12-27T20:01:11.909Z,9.08
2018-12-27T20:03:45.477Z,8.99
2018-12-27T20:06:18.931Z,8.99
2018-12-27T20:08:52.668Z,9.05
2018-12-27T20:11:26.197Z,9.10
2018-12-27T20:13:59.723Z,9.02
2018-12-27T20:16:33.396Z,9.03
2018-12-27T20:19:06.950Z,8.99
2018-12-27T20:21:40.452Z,8.95
2018-12-27T20:24:14.070Z,9.01
2018-12-27T20:26:47.513Z,8.99
2018-12-27T20:29:21.156Z,8.98
2018-12-27T20:31:54.717Z,8.95
2018-12-27T20:34:28.484Z,8.94
2018-12-27T20:37:01.913Z,9.02
2018-12-27T20:39:35.540Z,9.00
2018-12-27T20:42:08.978Z,8.93
2018-12-27T20:44:42.619Z,8.93
2018-12-27T20:47:16.055Z,8.92
2018-12-27T20:49:49.609Z,8.98
2018-12-27T20:52:23.107Z,8.98
2018-12-27T20:54:56.655Z,9.00
2018-12-27T20:57:30.249Z,8.94
2018-12-27T21:00:03.887Z,9.05
2018-12-27T21:02:37.396Z,8.93
2018-12-27T21:05:10.955Z,8.92
2018-12-27T21:07:48.181Z,8.95
2018-12-27T21:10:34.377Z,8.94
2018-12-27T21:13:08.014Z,8.99
2018-12-27T21:15:41.579Z,8.98
2018-12-27T21:18:15.120Z,8.97
2018-12-27T21:20:48.673Z,8.97
2018-12-27T21:23:22.181Z,8.99
2018-12-27T21:25:55.748Z,8.92
2018-12-27T21:28:29.251Z,8.86
2018-12-27T21:31:03.262Z,8.89
2018-12-27T21:33:36.700Z,8.93
2018-12-27T21:36:10.348Z,9.00
2018-12-27T21:38:43.833Z,8.98
2018-12-27T21:41:17.396Z,8.99
2018-12-27T21:43:50.917Z,9.00
2018-12-27T21:46:24.528Z,9.02
2018-12-27T21:48:58.035Z,9.03
2018-12-27T21:51:31.662Z,9.01
2018-12-27T21:54:05.300Z,9.01
2018-12-27T21:56:38.845Z,9.01
2018-12-27T21:59:12.358Z,8.98
2018-12-27T22:01:45.964Z,8.99
2018-12-27T22:04:19.409Z,9.00
2018-12-27T22:06:52.940Z,9.02
2018-12-27T22:09:26.458Z,8.99
2018-12-27T22:12:00.092Z,9.00
2018-12-27T22:14:33.518Z,8.97
2018-12-27T22:17:06.992Z,8.97
2018-12-27T22:19:40.502Z,9.01
2018-12-27T22:22:14.246Z,9.06
2018-12-27T22:24:47.817Z,9.03
2018-12-27T22:27:21.535Z,9.04
2018-12-27T22:29:54.947Z,8.97
2018-12-27T22:32:28.649Z,8.98
2018-12-27T22:35:02.227Z,9.01
2018-12-27T22:37:35.881Z,9.04
2018-12-27T22:40:09.488Z,9.03
2018-12-27T22:42:43.124Z,9.02
2018-12-27T22:45:16.704Z,9.04
2018-12-27T22:47:50.238Z,9.04
2018-12-27T22:50:23.810Z,9.05
2018-12-27T22:52:57.452Z,9.07
2018-12-27T22:55:30.983Z,9.05
2018-12-27T22:58:04.532Z,9.07
2018-12-27T23:00:39.041Z,9.05
2018-12-27T23:03:12.657Z,9.07
2018-12-27T23:05:46.356Z,9.05
2018-12-27T23:08:20.299Z,9.05
2018-12-27T23:10:54.047Z,9.08
2018-12-27T23:13:27.876Z,9.04
2018-12-27T23:16:01.382Z,9.01
2018-12-27T23:18:35.010Z,9.03
2018-12-27T23:21:08.596Z,9.08
2018-12-27T23:23:42.260Z,9.00
2018-12-27T23:26:15.699Z,9.03
2018-12-27T23:28:49.323Z,9.04
2018-12-27T23:31:26.057Z,9.00
2018-12-27T23:33:59.651Z,9.03
2018-12-27T23:36:33.199Z,9.01
2018-12-27T23:39:08.190Z,8.94
2018-12-27T23:41:41.696Z,8.99
2018-12-27T23:44:15.233Z,8.96
2018-12-27T23:46:48.930Z,9.01
2018-12-27T23:49:22.560Z,9.05
2018-12-27T23:51:56.232Z,9.04
2018-12-27T23:54:30.018Z,9.03
2018-12-27T23:57:03.658Z,9.08
2018-12-27T23:59:37.359Z,9.09
